sensor_id;sensor_type;location;lat;lon;timestamp;temperature;humidity
480;DHT22;226;48.606;9.096;2023-03-16T00:50:36;-0.70;71.00
480;DHT22;226;48.606;9.096;2023-03-16T00:53:35;1.00;73.60
480;DHT22;226;48.606;9.096;2023-03-16T00:56:04;-0.70;72.20
480;DHT22;226;48.606;9.096;2023-03-16T01:02:38;-0.60;71.90
480;DHT22;226;48.606;9.096;2023-03-16T01:05:07;-0.40;71.60
480;DHT22;226;48.606;9.096;2023-03-16T01:07:37;-0.50;71.70
480;DHT22;226;48.606;9.096;2023-03-16T01:10:07;-0.40;71.60
480;DHT22;226;48.606;9.096;2023-03-16T01:12:35;-0.40;70.80
480;DHT22;226;48.606;9.096;2023-03-16T01:15:14;-0.60;70.60
480;DHT22;226;48.606;9.096;2023-03-16T01:17:42;-0.30;69.90
480;DHT22;226;48.606;9.096;2023-03-16T01:20:47;-0.50;68.40
480;DHT22;226;48.606;9.096;2023-03-16T01:23:18;-0.20;66.80
480;DHT22;226;48.606;9.096;2023-03-16T01:29:34;-0.10;60.20
480;DHT22;226;48.606;9.096;2023-03-16T01:32:03;-0.40;58.10
480;DHT22;226;48.606;9.096;2023-03-16T01:34:32;-0.50;58.90
480;DHT22;226;48.606;9.096;2023-03-16T01:37:01;-0.70;59.50
480;DHT22;226;48.606;9.096;2023-03-16T01:39:31;-0.80;60.80
480;DHT22;226;48.606;9.096;2023-03-16T01:41:59;-0.90;61.20
480;DHT22;226;48.606;9.096;2023-03-16T01:44:27;-0.60;61.70
480;DHT22;226;48.606;9.096;2023-03-16T01:46:56;-1.00;62.30
480;DHT22;226;48.606;9.096;2023-03-16T01:49:27;-0.60;62.90
480;DHT22;226;48.606;9.096;2023-03-16T01:52:00;-1.00;63.60
480;DHT22;226;48.606;9.096;2023-03-16T01:54:32;-0.10;63.60
480;DHT22;226;48.606;9.096;2023-03-16T01:57:06;-0.80;63.20
480;DHT22;226;48.606;9.096;2023-03-16T01:59:37;-0.80;61.90
480;DHT22;226;48.606;9.096;2023-03-16T02:02:07;-0.70;61.40
480;DHT22;226;48.606;9.096;2023-03-16T02:04:41;-0.50;62.00
480;DHT22;226;48.606;9.096;2023-03-16T02:07:10;-0.80;61.80
480;DHT22;226;48.606;9.096;2023-03-16T02:09:45;-0.40;60.70
480;DHT22;226;48.606;9.096;2023-03-16T02:12:15;-0.60;60.30
480;DHT22;226;48.606;9.096;2023-03-16T02:14:45;-0.70;58.40
480;DHT22;226;48.606;9.096;2023-03-16T02:17:14;0.20;58.60
480;DHT22;226;48.606;9.096;2023-03-16T02:19:48;-0.70;56.60
480;DHT22;226;48.606;9.096;2023-03-16T02:22:19;-0.60;55.40
480;DHT22;226;48.606;9.096;2023-03-16T02:24:53;-0.90;54.70
480;DHT22;226;48.606;9.096;2023-03-16T02:27:26;-0.70;55.30
480;DHT22;226;48.606;9.096;2023-03-16T02:30:02;0.00;56.30
480;DHT22;226;48.606;9.096;2023-03-16T02:32:32;-0.40;55.80
480;DHT22;226;48.606;9.096;2023-03-16T02:35:01;-0.40;55.90
480;DHT22;226;48.606;9.096;2023-03-16T02:37:30;-0.10;54.90
480;DHT22;226;48.606;9.096;2023-03-16T02:40:00;-0.70;52.60
480;DHT22;226;48.606;9.096;2023-03-16T02:42:29;-0.80;53.10
480;DHT22;226;48.606;9.096;2023-03-16T02:44:59;-0.20;54.70
480;DHT22;226;48.606;9.096;2023-03-16T02:47:32;-1.20;54.20
480;DHT22;226;48.606;9.096;2023-03-16T02:50:02;-1.10;55.20
480;DHT22;226;48.606;9.096;2023-03-16T02:52:33;-1.00;56.70
480;DHT22;226;48.606;9.096;2023-03-16T02:55:01;-1.20;55.70
480;DHT22;226;48.606;9.096;2023-03-16T02:57:29;-1.10;56.60
480;DHT22;226;48.606;9.096;2023-03-16T02:59:59;-1.00;56.80
480;DHT22;226;48.606;9.096;2023-03-16T03:02:28;-1.20;56.70
480;DHT22;226;48.606;9.096;2023-03-16T03:04:56;-0.50;58.30
480;DHT22;226;48.606;9.096;2023-03-16T03:07:24;-0.60;58.00
480;DHT22;226;48.606;9.096;2023-03-16T03:09:57;-1.30;56.70
480;DHT22;226;48.606;9.096;2023-03-16T03:12:25;-1.00;57.90
480;DHT22;226;48.606;9.096;2023-03-16T03:14:53;-1.00;56.00
480;DHT22;226;48.606;9.096;2023-03-16T03:17:24;-0.90;55.90
480;DHT22;226;48.606;9.096;2023-03-16T03:19:56;-1.00;54.60
480;DHT22;226;48.606;9.096;2023-03-16T03:22:25;-0.30;55.00
480;DHT22;226;48.606;9.096;2023-03-16T03:24:53;-0.60;54.00
480;DHT22;226;48.606;9.096;2023-03-16T03:27:21;-1.00;52.50
480;DHT22;226;48.606;9.096;2023-03-16T03:29:50;-1.30;50.50
480;DHT22;226;48.606;9.096;2023-03-16T03:32:18;-1.00;51.00
480;DHT22;226;48.606;9.096;2023-03-16T03:34:49;-0.90;51.70
480;DHT22;226;48.606;9.096;2023-03-16T03:37:17;-0.80;51.70
480;DHT22;226;48.606;9.096;2023-03-16T03:39:45;-1.00;51.60
480;DHT22;226;48.606;9.096;2023-03-16T03:42:14;-0.80;51.10
480;DHT22;226;48.606;9.096;2023-03-16T03:44:42;-1.00;50.90
480;DHT22;226;48.606;9.096;2023-03-16T03:47:10;-1.20;47.40
480;DHT22;226;48.606;9.096;2023-03-16T03:49:38;-1.20;49.30
480;DHT22;226;48.606;9.096;2023-03-16T03:52:08;-1.40;50.80
480;DHT22;226;48.606;9.096;2023-03-16T03:54:36;-1.30;52.30
480;DHT22;226;48.606;9.096;2023-03-16T03:57:05;-1.20;53.20
480;DHT22;226;48.606;9.096;2023-03-16T03:59:33;-1.30;53.30
480;DHT22;226;48.606;9.096;2023-03-16T04:02:08;-1.20;52.70
480;DHT22;226;48.606;9.096;2023-03-16T04:04:37;-1.20;52.50
480;DHT22;226;48.606;9.096;2023-03-16T04:07:05;-1.40;52.40
480;DHT22;226;48.606;9.096;2023-03-16T04:09:35;-1.60;52.80
480;DHT22;226;48.606;9.096;2023-03-16T04:12:04;-1.30;53.70
480;DHT22;226;48.606;9.096;2023-03-16T04:14:33;-1.50;54.30
480;DHT22;226;48.606;9.096;2023-03-16T04:17:01;-1.40;55.30
480;DHT22;226;48.606;9.096;2023-03-16T04:19:30;-1.10;55.40
480;DHT22;226;48.606;9.096;2023-03-16T04:21:58;-1.50;55.20
480;DHT22;226;48.606;9.096;2023-03-16T04:24:26;-1.20;55.50
480;DHT22;226;48.606;9.096;2023-03-16T04:26:56;-1.40;54.60
480;DHT22;226;48.606;9.096;2023-03-16T04:29:24;-1.20;54.50
480;DHT22;226;48.606;9.096;2023-03-16T04:31:52;-1.00;54.80
480;DHT22;226;48.606;9.096;2023-03-16T04:34:20;-1.30;53.00
480;DHT22;226;48.606;9.096;2023-03-16T04:36:50;-0.80;50.90
480;DHT22;226;48.606;9.096;2023-03-16T04:39:19;-1.50;48.60
480;DHT22;226;48.606;9.096;2023-03-16T04:41:47;-1.00;51.20
480;DHT22;226;48.606;9.096;2023-03-16T04:44:17;-1.60;51.90
480;DHT22;226;48.606;9.096;2023-03-16T04:46:45;-1.90;53.10
480;DHT22;226;48.606;9.096;2023-03-16T04:49:13;-1.90;54.10
480;DHT22;226;48.606;9.096;2023-03-16T04:51:41;-1.80;55.30
480;DHT22;226;48.606;9.096;2023-03-16T04:54:09;-1.80;55.60
480;DHT22;226;48.606;9.096;2023-03-16T04:56:37;-1.80;55.40
480;DHT22;226;48.606;9.096;2023-03-16T04:59:07;-1.70;55.70
480;DHT22;226;48.606;9.096;2023-03-16T05:01:37;-1.60;55.30
480;DHT22;226;48.606;9.096;2023-03-16T05:04:06;-1.60;54.90
480;DHT22;226;48.606;9.096;2023-03-16T05:06:34;-1.70;55.20
480;DHT22;226;48.606;9.096;2023-03-16T05:09:02;-1.70;55.00
480;DHT22;226;48.606;9.096;2023-03-16T05:11:31;-1.60;54.90
480;DHT22;226;48.606;9.096;2023-03-16T05:14:00;-1.60;55.50
480;DHT22;226;48.606;9.096;2023-03-16T05:16:28;-1.60;54.60
480;DHT22;226;48.606;9.096;2023-03-16T05:18:58;-1.40;53.50
480;DHT22;226;48.606;9.096;2023-03-16T05:21:27;-1.40;51.90
480;DHT22;226;48.606;9.096;2023-03-16T05:23:57;-1.50;50.10
480;DHT22;226;48.606;9.096;2023-03-16T05:26:26;-1.10;49.70
480;DHT22;226;48.606;9.096;2023-03-16T05:28:54;-1.70;50.00
480;DHT22;226;48.606;9.096;2023-03-16T05:31:24;-1.60;51.60
480;DHT22;226;48.606;9.096;2023-03-16T05:33:53;-1.80;51.40
480;DHT22;226;48.606;9.096;2023-03-16T05:36:23;-1.50;52.00
480;DHT22;226;48.606;9.096;2023-03-16T05:38:51;-1.40;52.20
480;DHT22;226;48.606;9.096;2023-03-16T05:41:19;-1.60;50.20
480;DHT22;226;48.606;9.096;2023-03-16T05:43:48;-1.60;50.40
480;DHT22;226;48.606;9.096;2023-03-16T05:46:16;-1.80;50.10
480;DHT22;226;48.606;9.096;2023-03-16T05:48:46;-1.80;51.60
480;DHT22;226;48.606;9.096;2023-03-16T05:51:14;-1.90;51.40
480;DHT22;226;48.606;9.096;2023-03-16T05:53:44;-1.50;53.00
480;DHT22;226;48.606;9.096;2023-03-16T05:56:13;-1.80;52.80
480;DHT22;226;48.606;9.096;2023-03-16T05:58:41;-1.50;53.10
480;DHT22;226;48.606;9.096;2023-03-16T06:01:09;-1.70;52.70
480;DHT22;226;48.606;9.096;2023-03-16T06:03:39;-1.70;51.90
480;DHT22;226;48.606;9.096;2023-03-16T06:06:07;-1.40;50.70
480;DHT22;226;48.606;9.096;2023-03-16T06:08:35;-1.20;50.00
480;DHT22;226;48.606;9.096;2023-03-16T06:11:05;-1.40;48.00
480;DHT22;226;48.606;9.096;2023-03-16T06:13:33;-1.60;48.20
480;DHT22;226;48.606;9.096;2023-03-16T06:16:02;-0.40;50.00
480;DHT22;226;48.606;9.096;2023-03-16T06:18:32;-1.40;48.50
480;DHT22;226;48.606;9.096;2023-03-16T06:21:00;-1.30;48.30
480;DHT22;226;48.606;9.096;2023-03-16T06:23:28;-1.50;49.20
480;DHT22;226;48.606;9.096;2023-03-16T06:25:56;-1.40;49.70
480;DHT22;226;48.606;9.096;2023-03-16T06:28:26;-1.20;49.00
480;DHT22;226;48.606;9.096;2023-03-16T06:30:55;-1.30;48.60
480;DHT22;226;48.606;9.096;2023-03-16T06:33:24;-1.10;48.20
480;DHT22;226;48.606;9.096;2023-03-16T06:35:52;-1.20;48.90
480;DHT22;226;48.606;9.096;2023-03-16T06:38:20;-1.20;49.20
480;DHT22;226;48.606;9.096;2023-03-16T06:40:51;-1.00;48.90
480;DHT22;226;48.606;9.096;2023-03-16T06:43:19;-1.10;48.50
480;DHT22;226;48.606;9.096;2023-03-16T06:45:49;-0.50;48.70
480;DHT22;226;48.606;9.096;2023-03-16T06:48:17;-0.70;49.10
480;DHT22;226;48.606;9.096;2023-03-16T06:50:45;-0.80;48.00
480;DHT22;226;48.606;9.096;2023-03-16T06:53:13;-0.10;49.30
480;DHT22;226;48.606;9.096;2023-03-16T06:55:41;-0.40;48.70
480;DHT22;226;48.606;9.096;2023-03-16T06:58:09;0.00;49.40
480;DHT22;226;48.606;9.096;2023-03-16T07:00:38;-0.30;48.20
480;DHT22;226;48.606;9.096;2023-03-16T07:03:07;-0.40;48.60
480;DHT22;226;48.606;9.096;2023-03-16T07:05:35;-0.40;49.00
480;DHT22;226;48.606;9.096;2023-03-16T07:08:04;-0.10;48.40
480;DHT22;226;48.606;9.096;2023-03-16T07:10:32;0.00;47.90
480;DHT22;226;48.606;9.096;2023-03-16T07:13:00;-0.10;47.70
480;DHT22;226;48.606;9.096;2023-03-16T07:15:29;0.00;47.00
480;DHT22;226;48.606;9.096;2023-03-16T07:17:57;0.30;46.80
480;DHT22;226;48.606;9.096;2023-03-16T07:20:27;0.80;47.60
480;DHT22;226;48.606;9.096;2023-03-16T07:22:57;1.00;47.70
480;DHT22;226;48.606;9.096;2023-03-16T07:25:25;0.30;47.00
480;DHT22;226;48.606;9.096;2023-03-16T07:27:54;0.80;47.30
480;DHT22;226;48.606;9.096;2023-03-16T07:30:22;1.00;47.00
480;DHT22;226;48.606;9.096;2023-03-16T07:32:51;1.50;48.00
480;DHT22;226;48.606;9.096;2023-03-16T07:35:19;1.00;47.50
480;DHT22;226;48.606;9.096;2023-03-16T07:37:49;1.20;48.20
480;DHT22;226;48.606;9.096;2023-03-16T07:40:17;1.50;47.90
480;DHT22;226;48.606;9.096;2023-03-16T07:42:46;1.40;47.90
480;DHT22;226;48.606;9.096;2023-03-16T07:45:14;1.80;48.40
480;DHT22;226;48.606;9.096;2023-03-16T07:47:43;1.50;47.50
480;DHT22;226;48.606;9.096;2023-03-16T07:50:11;2.80;48.50
480;DHT22;226;48.606;9.096;2023-03-16T07:52:41;1.60;47.10
480;DHT22;226;48.606;9.096;2023-03-16T07:55:11;1.80;47.00
480;DHT22;226;48.606;9.096;2023-03-16T07:57:40;2.00;45.20
480;DHT22;226;48.606;9.096;2023-03-16T08:00:14;2.20;43.00
480;DHT22;226;48.606;9.096;2023-03-16T08:02:42;2.30;42.80
480;DHT22;226;48.606;9.096;2023-03-16T08:05:10;2.40;42.30
480;DHT22;226;48.606;9.096;2023-03-16T08:07:40;2.50;41.20
480;DHT22;226;48.606;9.096;2023-03-16T08:10:10;2.60;41.00
480;DHT22;226;48.606;9.096;2023-03-16T08:12:39;2.80;41.20
480;DHT22;226;48.606;9.096;2023-03-16T08:15:08;2.70;41.10
480;DHT22;226;48.606;9.096;2023-03-16T08:17:37;2.90;41.50
480;DHT22;226;48.606;9.096;2023-03-16T08:20:08;3.00;41.60
480;DHT22;226;48.606;9.096;2023-03-16T08:22:40;3.10;40.80
480;DHT22;226;48.606;9.096;2023-03-16T08:25:13;3.20;40.00
480;DHT22;226;48.606;9.096;2023-03-16T08:27:41;3.30;39.50
480;DHT22;226;48.606;9.096;2023-03-16T08:30:11;3.50;38.80
480;DHT22;226;48.606;9.096;2023-03-16T08:32:40;3.60;38.00
480;DHT22;226;48.606;9.096;2023-03-16T08:35:10;3.70;35.60
480;DHT22;226;48.606;9.096;2023-03-16T08:37:40;3.90;34.80
480;DHT22;226;48.606;9.096;2023-03-16T08:40:10;4.00;35.60
480;DHT22;226;48.606;9.096;2023-03-16T08:42:41;4.10;34.60
480;DHT22;226;48.606;9.096;2023-03-16T08:45:11;4.30;32.50
480;DHT22;226;48.606;9.096;2023-03-16T08:47:40;4.30;32.90
480;DHT22;226;48.606;9.096;2023-03-16T08:50:10;4.70;32.90
480;DHT22;226;48.606;9.096;2023-03-16T08:52:39;4.60;30.10
480;DHT22;226;48.606;9.096;2023-03-16T08:55:20;4.80;29.00
480;DHT22;226;48.606;9.096;2023-03-16T08:57:49;5.00;27.90
480;DHT22;226;48.606;9.096;2023-03-16T09:00:18;5.10;26.70
480;DHT22;226;48.606;9.096;2023-03-16T09:02:47;5.20;26.10
480;DHT22;226;48.606;9.096;2023-03-16T09:05:15;5.20;25.50
480;DHT22;226;48.606;9.096;2023-03-16T09:07:44;5.20;25.50
480;DHT22;226;48.606;9.096;2023-03-16T09:10:15;5.40;24.60
480;DHT22;226;48.606;9.096;2023-03-16T09:12:43;5.40;23.60
480;DHT22;226;48.606;9.096;2023-03-16T09:15:12;5.80;23.70
480;DHT22;226;48.606;9.096;2023-03-16T09:17:41;5.50;23.00
480;DHT22;226;48.606;9.096;2023-03-16T09:20:12;5.70;23.10
480;DHT22;226;48.606;9.096;2023-03-16T09:22:51;5.70;23.20
480;DHT22;226;48.606;9.096;2023-03-16T09:25:20;5.90;23.80
480;DHT22;226;48.606;9.096;2023-03-16T09:27:48;5.70;24.10
480;DHT22;226;48.606;9.096;2023-03-16T09:30:18;5.90;21.70
480;DHT22;226;48.606;9.096;2023-03-16T09:32:46;7.70;24.20
480;DHT22;226;48.606;9.096;2023-03-16T09:35:15;6.30;22.20
480;DHT22;226;48.606;9.096;2023-03-16T09:37:43;6.50;22.70
480;DHT22;226;48.606;9.096;2023-03-16T09:40:31;6.60;21.80
480;DHT22;226;48.606;9.096;2023-03-16T09:43:24;6.80;21.20
480;DHT22;226;48.606;9.096;2023-03-16T09:46:02;7.20;19.10
480;DHT22;226;48.606;9.096;2023-03-16T09:48:34;7.10;17.80
480;DHT22;226;48.606;9.096;2023-03-16T09:51:05;7.20;18.30
480;DHT22;226;48.606;9.096;2023-03-16T09:53:36;7.10;19.50
480;DHT22;226;48.606;9.096;2023-03-16T09:56:08;7.20;20.30
480;DHT22;226;48.606;9.096;2023-03-16T09:58:37;7.40;19.20
480;DHT22;226;48.606;9.096;2023-03-16T10:01:14;7.50;18.30
480;DHT22;226;48.606;9.096;2023-03-16T10:04:02;7.40;20.10
480;DHT22;226;48.606;9.096;2023-03-16T10:06:36;7.60;18.30
480;DHT22;226;48.606;9.096;2023-03-16T10:09:28;7.90;19.30
480;DHT22;226;48.606;9.096;2023-03-16T10:12:00;8.10;18.30
480;DHT22;226;48.606;9.096;2023-03-16T10:14:32;8.10;19.60
480;DHT22;226;48.606;9.096;2023-03-16T10:17:10;8.80;18.70
480;DHT22;226;48.606;9.096;2023-03-16T10:19:44;8.20;17.70
480;DHT22;226;48.606;9.096;2023-03-16T10:22:19;8.20;16.10
480;DHT22;226;48.606;9.096;2023-03-16T10:24:58;8.40;16.70
480;DHT22;226;48.606;9.096;2023-03-16T10:27:30;8.60;16.40
480;DHT22;226;48.606;9.096;2023-03-16T10:29:58;8.40;16.80
480;DHT22;226;48.606;9.096;2023-03-16T10:32:32;8.60;17.30
480;DHT22;226;48.606;9.096;2023-03-16T10:35:04;8.50;17.40
480;DHT22;226;48.606;9.096;2023-03-16T10:37:36;8.50;16.10
480;DHT22;226;48.606;9.096;2023-03-16T10:40:06;8.50;17.20
480;DHT22;226;48.606;9.096;2023-03-16T10:42:38;8.50;16.80
480;DHT22;226;48.606;9.096;2023-03-16T10:45:26;8.60;17.10
480;DHT22;226;48.606;9.096;2023-03-16T10:48:06;8.70;15.80
480;DHT22;226;48.606;9.096;2023-03-16T10:50:35;8.80;16.70
480;DHT22;226;48.606;9.096;2023-03-16T10:53:03;8.90;15.20
480;DHT22;226;48.606;9.096;2023-03-16T10:55:40;9.00;15.60
480;DHT22;226;48.606;9.096;2023-03-16T10:58:09;9.30;15.90
480;DHT22;226;48.606;9.096;2023-03-16T11:00:41;9.40;13.80
480;DHT22;226;48.606;9.096;2023-03-16T11:03:23;9.20;12.90
480;DHT22;226;48.606;9.096;2023-03-16T11:05:58;9.80;12.90
480;DHT22;226;48.606;9.096;2023-03-16T11:08:27;9.30;12.80
480;DHT22;226;48.606;9.096;2023-03-16T11:10:59;9.40;12.50
480;DHT22;226;48.606;9.096;2023-03-16T11:13:32;9.50;12.00
480;DHT22;226;48.606;9.096;2023-03-16T11:16:04;9.60;10.50
480;DHT22;226;48.606;9.096;2023-03-16T11:18:36;9.30;10.90
480;DHT22;226;48.606;9.096;2023-03-16T11:21:11;9.30;11.90
480;DHT22;226;48.606;9.096;2023-03-16T11:23:46;9.50;9.70
480;DHT22;226;48.606;9.096;2023-03-16T11:26:20;9.30;11.80
480;DHT22;226;48.606;9.096;2023-03-16T11:28:54;9.80;11.60
480;DHT22;226;48.606;9.096;2023-03-16T11:31:36;9.70;11.40
480;DHT22;226;48.606;9.096;2023-03-16T11:34:14;9.80;11.40
480;DHT22;226;48.606;9.096;2023-03-16T11:36:48;9.80;10.70
480;DHT22;226;48.606;9.096;2023-03-16T11:39:29;9.90;10.20
480;DHT22;226;48.606;9.096;2023-03-16T11:42:09;10.00;8.60
480;DHT22;226;48.606;9.096;2023-03-16T11:44:51;10.10;10.10
480;DHT22;226;48.606;9.096;2023-03-16T11:47:37;10.20;9.60
480;DHT22;226;48.606;9.096;2023-03-16T11:50:17;10.20;10.00
480;DHT22;226;48.606;9.096;2023-03-16T11:52:53;10.30;9.30
480;DHT22;226;48.606;9.096;2023-03-16T11:55:30;10.40;7.40
480;DHT22;226;48.606;9.096;2023-03-16T11:58:12;10.40;7.30
480;DHT22;226;48.606;9.096;2023-03-16T12:00:50;10.40;8.60
480;DHT22;226;48.606;9.096;2023-03-16T12:03:43;10.60;7.40
480;DHT22;226;48.606;9.096;2023-03-16T12:06:32;10.60;7.30
480;DHT22;226;48.606;9.096;2023-03-16T12:12:19;10.90;10.10
480;DHT22;226;48.606;9.096;2023-03-16T12:14:56;11.00;10.50
480;DHT22;226;48.606;9.096;2023-03-16T12:17:31;11.10;10.10
480;DHT22;226;48.606;9.096;2023-03-16T12:20:02;11.20;8.30
480;DHT22;226;48.606;9.096;2023-03-16T12:22:36;11.40;8.70
480;DHT22;226;48.606;9.096;2023-03-16T12:25:13;11.30;8.00
480;DHT22;226;48.606;9.096;2023-03-16T12:27:44;11.30;7.90
480;DHT22;226;48.606;9.096;2023-03-16T12:30:25;11.50;10.30
480;DHT22;226;48.606;9.096;2023-03-16T12:33:01;11.60;14.20
480;DHT22;226;48.606;9.096;2023-03-16T12:35:38;11.70;14.30
480;DHT22;226;48.606;9.096;2023-03-16T12:38:28;11.90;13.90
480;DHT22;226;48.606;9.096;2023-03-16T12:41:11;12.10;13.40
480;DHT22;226;48.606;9.096;2023-03-16T12:43:54;12.10;14.20
480;DHT22;226;48.606;9.096;2023-03-16T12:46:29;12.10;13.90
480;DHT22;226;48.606;9.096;2023-03-16T12:49:01;11.80;12.70
480;DHT22;226;48.606;9.096;2023-03-16T12:51:33;12.00;12.70
480;DHT22;226;48.606;9.096;2023-03-16T12:54:04;12.00;12.50
480;DHT22;226;48.606;9.096;2023-03-16T12:56:35;12.00;13.30
480;DHT22;226;48.606;9.096;2023-03-16T12:59:04;12.10;12.10
480;DHT22;226;48.606;9.096;2023-03-16T13:01:38;12.10;12.40
480;DHT22;226;48.606;9.096;2023-03-16T13:04:10;12.20;12.30
480;DHT22;226;48.606;9.096;2023-03-16T13:06:42;12.30;13.70
480;DHT22;226;48.606;9.096;2023-03-16T13:09:16;12.50;13.40
480;DHT22;226;48.606;9.096;2023-03-16T13:11:47;12.50;12.70
480;DHT22;226;48.606;9.096;2023-03-16T13:14:36;12.60;12.30
480;DHT22;226;48.606;9.096;2023-03-16T13:17:22;12.60;12.20
480;DHT22;226;48.606;9.096;2023-03-16T13:20:25;12.50;13.30
480;DHT22;226;48.606;9.096;2023-03-16T13:23:16;12.50;12.70
480;DHT22;226;48.606;9.096;2023-03-16T13:28:43;12.70;13.20
480;DHT22;226;48.606;9.096;2023-03-16T13:31:24;12.60;12.50
480;DHT22;226;48.606;9.096;2023-03-16T13:33:54;12.50;11.50
480;DHT22;226;48.606;9.096;2023-03-16T13:36:26;12.50;12.20
480;DHT22;226;48.606;9.096;2023-03-16T13:38:56;12.60;11.70
480;DHT22;226;48.606;9.096;2023-03-16T13:41:31;12.60;12.30
480;DHT22;226;48.606;9.096;2023-03-16T13:43:59;12.80;12.80
480;DHT22;226;48.606;9.096;2023-03-16T13:46:29;13.20;19.50
480;DHT22;226;48.606;9.096;2023-03-16T13:48:58;13.50;19.20
480;DHT22;226;48.606;9.096;2023-03-16T13:51:29;13.70;18.40
480;DHT22;226;48.606;9.096;2023-03-16T13:54:04;13.90;19.20
480;DHT22;226;48.606;9.096;2023-03-16T13:56:36;14.20;27.40
480;DHT22;226;48.606;9.096;2023-03-16T13:59:07;14.30;19.00
480;DHT22;226;48.606;9.096;2023-03-16T19:10:33;7.80;60.90
480;DHT22;226;48.606;9.096;2023-03-16T19:13:02;7.60;60.60
480;DHT22;226;48.606;9.096;2023-03-16T19:15:31;7.50;60.90
480;DHT22;226;48.606;9.096;2023-03-16T19:18:01;7.70;62.80
480;DHT22;226;48.606;9.096;2023-03-16T19:20:31;7.70;62.90
480;DHT22;226;48.606;9.096;2023-03-16T19:23:03;7.40;62.90
480;DHT22;226;48.606;9.096;2023-03-16T19:25:34;7.30;62.80
480;DHT22;226;48.606;9.096;2023-03-16T19:28:04;7.30;63.60
480;DHT22;226;48.606;9.096;2023-03-16T19:30:34;7.20;63.90
480;DHT22;226;48.606;9.096;2023-03-16T19:33:04;7.30;65.90
480;DHT22;226;48.606;9.096;2023-03-16T19:35:37;7.20;64.90
480;DHT22;226;48.606;9.096;2023-03-16T19:38:19;7.10;64.70
480;DHT22;226;48.606;9.096;2023-03-16T19:40:51;7.00;65.00
480;DHT22;226;48.606;9.096;2023-03-16T19:43:20;7.00;63.20
480;DHT22;226;48.606;9.096;2023-03-16T19:45:48;6.90;61.60
480;DHT22;226;48.606;9.096;2023-03-16T19:48:18;6.80;60.40
480;DHT22;226;48.606;9.096;2023-03-16T19:50:49;6.80;59.40
480;DHT22;226;48.606;9.096;2023-03-16T19:53:20;6.80;59.30
480;DHT22;226;48.606;9.096;2023-03-16T19:55:50;6.80;58.90
480;DHT22;226;48.606;9.096;2023-03-16T19:58:25;6.80;59.20
480;DHT22;226;48.606;9.096;2023-03-16T20:00:55;6.80;58.40
480;DHT22;226;48.606;9.096;2023-03-16T20:03:23;6.70;58.80
480;DHT22;226;48.606;9.096;2023-03-16T20:05:52;6.70;58.50
480;DHT22;226;48.606;9.096;2023-03-16T20:08:23;6.60;59.70
480;DHT22;226;48.606;9.096;2023-03-16T20:10:53;6.60;52.80
480;DHT22;226;48.606;9.096;2023-03-16T20:13:24;6.40;42.50
480;DHT22;226;48.606;9.096;2023-03-16T20:15:52;6.40;41.70
480;DHT22;226;48.606;9.096;2023-03-16T20:18:20;6.30;42.00
480;DHT22;226;48.606;9.096;2023-03-16T20:20:49;6.20;39.70
480;DHT22;226;48.606;9.096;2023-03-16T20:23:21;6.20;39.10
480;DHT22;226;48.606;9.096;2023-03-16T20:25:53;6.20;38.80
480;DHT22;226;48.606;9.096;2023-03-16T20:28:24;6.10;35.40
480;DHT22;226;48.606;9.096;2023-03-16T20:30:52;6.00;34.20
480;DHT22;226;48.606;9.096;2023-03-16T20:33:23;5.90;33.60
480;DHT22;226;48.606;9.096;2023-03-16T20:35:52;5.90;35.20
480;DHT22;226;48.606;9.096;2023-03-16T20:38:22;5.80;36.50
480;DHT22;226;48.606;9.096;2023-03-16T20:40:51;5.80;36.90
480;DHT22;226;48.606;9.096;2023-03-16T20:43:22;5.80;37.40
480;DHT22;226;48.606;9.096;2023-03-16T20:45:53;5.80;37.20
480;DHT22;226;48.606;9.096;2023-03-16T20:48:22;5.70;36.20
480;DHT22;226;48.606;9.096;2023-03-16T20:50:51;5.60;33.50
480;DHT22;226;48.606;9.096;2023-03-16T20:53:22;5.50;32.70
480;DHT22;226;48.606;9.096;2023-03-16T20:55:51;5.30;31.00
480;DHT22;226;48.606;9.096;2023-03-16T20:58:22;5.20;30.40
480;DHT22;226;48.606;9.096;2023-03-16T21:00:52;5.10;31.30
480;DHT22;226;48.606;9.096;2023-03-16T21:03:24;5.10;30.30
480;DHT22;226;48.606;9.096;2023-03-16T21:05:54;5.00;31.40
480;DHT22;226;48.606;9.096;2023-03-16T21:08:27;5.10;30.20
480;DHT22;226;48.606;9.096;2023-03-16T21:10:55;4.80;31.90
480;DHT22;226;48.606;9.096;2023-03-16T21:13:29;4.70;32.90
480;DHT22;226;48.606;9.096;2023-03-16T21:15:59;4.70;33.80
480;DHT22;226;48.606;9.096;2023-03-16T21:18:28;4.70;33.70
480;DHT22;226;48.606;9.096;2023-03-16T21:20:57;4.70;34.30
480;DHT22;226;48.606;9.096;2023-03-16T21:23:26;4.70;33.20
480;DHT22;226;48.606;9.096;2023-03-16T21:25:56;4.70;33.00
480;DHT22;226;48.606;9.096;2023-03-16T21:28:26;4.60;33.50
480;DHT22;226;48.606;9.096;2023-03-16T21:30:56;4.50;34.90
480;DHT22;226;48.606;9.096;2023-03-16T21:33:27;4.60;34.20
480;DHT22;226;48.606;9.096;2023-03-16T21:35:57;4.60;34.30
480;DHT22;226;48.606;9.096;2023-03-16T21:38:28;4.60;35.40
480;DHT22;226;48.606;9.096;2023-03-16T21:40:57;4.60;35.00
480;DHT22;226;48.606;9.096;2023-03-16T21:43:26;4.60;35.20
480;DHT22;226;48.606;9.096;2023-03-16T21:45:54;4.60;33.60
480;DHT22;226;48.606;9.096;2023-03-16T21:48:26;4.60;33.80
480;DHT22;226;48.606;9.096;2023-03-16T21:50:56;4.50;34.50
480;DHT22;226;48.606;9.096;2023-03-16T21:53:27;4.50;35.30
480;DHT22;226;48.606;9.096;2023-03-16T21:55:56;4.50;35.40
480;DHT22;226;48.606;9.096;2023-03-16T21:58:25;4.50;35.90
480;DHT22;226;48.606;9.096;2023-03-16T22:00:54;4.60;35.60
480;DHT22;226;48.606;9.096;2023-03-16T22:03:26;4.60;35.90
480;DHT22;226;48.606;9.096;2023-03-16T22:06:13;4.60;36.10
480;DHT22;226;48.606;9.096;2023-03-16T22:08:43;4.60;36.10
480;DHT22;226;48.606;9.096;2023-03-16T22:11:14;4.60;35.60
480;DHT22;226;48.606;9.096;2023-03-16T22:13:43;4.60;35.60
480;DHT22;226;48.606;9.096;2023-03-16T22:16:14;4.60;35.20
480;DHT22;226;48.606;9.096;2023-03-16T22:18:44;4.60;35.10
480;DHT22;226;48.606;9.096;2023-03-16T22:21:23;4.40;35.70
480;DHT22;226;48.606;9.096;2023-03-16T22:23:54;4.30;38.80
480;DHT22;226;48.606;9.096;2023-03-16T22:26:23;4.20;40.80
480;DHT22;226;48.606;9.096;2023-03-16T22:28:52;4.00;42.00
480;DHT22;226;48.606;9.096;2023-03-16T22:31:27;4.00;42.90
480;DHT22;226;48.606;9.096;2023-03-16T22:33:57;4.10;43.60
480;DHT22;226;48.606;9.096;2023-03-16T22:36:26;4.10;42.40
480;DHT22;226;48.606;9.096;2023-03-16T22:38:58;4.10;42.90
480;DHT22;226;48.606;9.096;2023-03-16T22:41:28;4.10;42.30
480;DHT22;226;48.606;9.096;2023-03-16T22:43:57;4.00;42.50
480;DHT22;226;48.606;9.096;2023-03-16T22:46:26;3.90;44.30
480;DHT22;226;48.606;9.096;2023-03-16T22:48:56;3.90;44.90
480;DHT22;226;48.606;9.096;2023-03-16T22:51:27;4.00;45.30
480;DHT22;226;48.606;9.096;2023-03-16T22:54:00;3.80;45.80
480;DHT22;226;48.606;9.096;2023-03-16T22:56:30;3.80;46.30
480;DHT22;226;48.606;9.096;2023-03-16T22:59:00;3.90;45.80
480;DHT22;226;48.606;9.096;2023-03-16T23:01:32;3.80;45.40
480;DHT22;226;48.606;9.096;2023-03-16T23:04:01;3.90;45.80
480;DHT22;226;48.606;9.096;2023-03-16T23:06:30;4.00;45.30
480;DHT22;226;48.606;9.096;2023-03-16T23:08:59;3.80;44.50
480;DHT22;226;48.606;9.096;2023-03-16T23:11:30;3.90;44.00
480;DHT22;226;48.606;9.096;2023-03-16T23:13:59;3.80;44.40
480;DHT22;226;48.606;9.096;2023-03-16T23:16:29;3.70;45.50
480;DHT22;226;48.606;9.096;2023-03-16T23:18:58;3.60;46.50
480;DHT22;226;48.606;9.096;2023-03-16T23:21:28;3.60;46.90
480;DHT22;226;48.606;9.096;2023-03-16T23:23:56;3.50;47.50